Time;durP1;ratioP1;P1;durP2;ratioP2;P2;SDS_P1;SDS_P2;PMS_P1;PMS_P2;Temp;Humidity;BMP_temperature;BMP_pressure;BME280_temperature;BME280_humidity;BME280_pressure;Samples;Min_cycle;Max_cycle;Signal;HPM_P1;HPM_P2
2022/01/27 00:00:46;;;;;;;;;;;;;;;18.14;61.91;101717.25;4972580;28;1910;-61
2022/01/27 00:03:24;;;;;;;;;;;;;;;18.17;61.88;101733.13;4972566;28;1428;-61
2022/01/27 00:05:53;;;;;;;;;;;;;;;18.15;61.94;101722.53;4975833;28;2116;-61
2022/01/27 00:08:25;;;;;;;;;;;;;;;18.08;62.25;101726.56;4967490;28;960;-61
2022/01/27 00:10:55;;;;;;;;;;;;;;;18.10;62.30;101724.66;4958828;29;977;-61
2022/01/27 00:13:28;;;;;;;;;;;;;;;18.05;62.16;101729.47;4964033;28;1555;-61
2022/01/27 00:16:11;;;;;;;;;;;;;;;18.06;62.22;101728.50;4967107;28;1017;-61
2022/01/27 00:18:38;;;;;;;;;;;;;;;18.07;61.68;101722.19;4964101;28;1457;-61
2022/01/27 00:21:05;;;;;;;;;;;;;;;18.11;61.95;101729.06;4970055;28;1977;-61
2022/01/27 00:23:31;;;;;;;;;;;;;;;18.05;61.81;101718.78;4965763;28;1517;-61
2022/01/27 00:25:58;;;;;;;;;;;;;;;18.08;61.60;101723.91;4969435;28;1573;-61
2022/01/27 00:28:24;;;;;;;;;;;;;;;18.06;61.50;101718.66;4972546;28;1301;-61
2022/01/27 00:30:51;;;;;;;;;;;;;;;18.06;61.98;101731.16;4969645;28;1066;-61
2022/01/27 00:33:19;;;;;;;;;;;;;;;18.05;61.60;101729.47;4972976;28;1547;-61
2022/01/27 00:35:46;;;;;;;;;;;;;;;18.01;61.33;101715.44;4966425;28;1612;-61
2022/01/27 00:38:12;;;;;;;;;;;;;;;18.06;61.24;101718.66;4967437;28;1565;-61
2022/01/27 00:40:39;;;;;;;;;;;;;;;18.01;61.39;101728.81;4963266;28;1910;-61
2022/01/27 00:43:05;;;;;;;;;;;;;;;18.02;61.16;101724.31;4975450;28;1346;-61
2022/01/27 00:45:33;;;;;;;;;;;;;;;17.98;61.43;101725.50;4966882;28;972;-61
2022/01/27 00:48:03;;;;;;;;;;;;;;;17.95;61.41;101726.56;4972160;28;1373;-61
2022/01/27 00:50:32;;;;;;;;;;;;;;;17.96;61.31;101720.25;4964677;28;1636;-61
2022/01/27 00:53:02;;;;;;;;;;;;;;;17.91;61.48;101719.72;4965765;28;1321;-61
2022/01/27 00:55:32;;;;;;;;;;;;;;;17.90;61.28;101709.97;4966061;28;1513;-61
2022/01/27 00:58:02;;;;;;;;;;;;;;;17.91;61.15;101702.81;4971654;28;1408;-60
2022/01/27 01:00:33;;;;;;;;;;;;;;;17.88;61.31;101707.38;4958674;28;1581;-61
2022/01/27 01:03:04;;;;;;;;;;;;;;;17.93;61.27;101711.59;4967583;28;1902;-61
2022/01/27 01:05:50;;;;;;;;;;;;;;;17.93;61.17;101714.28;4957802;28;1381;-61
2022/01/27 01:09:06;;;;;;;;;;;;;;;17.92;61.05;101721.41;4971622;28;1372;-61
2022/01/27 01:11:53;;;;;;;;;;;;;;;17.90;61.05;101715.31;4970777;28;1704;-61
2022/01/27 01:14:39;;;;;;;;;;;;;;;17.85;61.25;101707.63;4965324;28;1092;-61
2022/01/27 01:17:13;;;;;;;;;;;;;;;17.84;61.30;101718.41;4959664;28;1524;-61
2022/01/27 01:19:54;;;;;;;;;;;;;;;17.80;61.10;101716.88;4968364;28;1062;-61
2022/01/27 01:30:48;;;;;;;;;;;;;;;17.79;61.05;101717.84;4967018;28;1186;-59
2022/01/27 01:33:21;;;;;;;;;;;;;;;17.74;60.73;101722.66;4962610;28;1751;-61
2022/01/27 01:35:49;;;;;;;;;;;;;;;17.82;61.06;101717.63;4967869;28;1412;-61
2022/01/27 01:38:19;;;;;;;;;;;;;;;17.79;60.63;101721.38;4970612;28;1517;-61
2022/01/27 01:40:46;;;;;;;;;;;;;;;17.77;60.55;101712.59;4971302;28;1492;-61
2022/01/27 01:43:13;;;;;;;;;;;;;;;17.79;60.61;101718.69;4968181;28;1361;-61
2022/01/27 01:45:39;;;;;;;;;;;;;;;17.83;60.81;101709.53;4968414;28;975;-61
2022/01/27 01:48:06;;;;;;;;;;;;;;;17.84;60.25;101711.22;4962517;28;1720;-61
2022/01/27 01:50:33;;;;;;;;;;;;;;;17.82;60.53;101702.44;4966331;28;1589;-61
2022/01/27 01:52:59;;;;;;;;;;;;;;;17.83;60.54;101698.84;4963247;28;1365;-61
2022/01/27 01:55:27;;;;;;;;;;;;;;;17.81;60.36;101695.38;4960282;28;1373;-61
2022/01/27 01:57:57;;;;;;;;;;;;;;;17.79;60.42;101691.94;4966175;28;1568;-61
2022/01/27 02:00:24;;;;;;;;;;;;;;;17.75;60.19;101689.59;4970318;28;1520;-61
2022/01/27 02:02:50;;;;;;;;;;;;;;;17.73;60.55;101687.03;4969603;28;1989;-61
2022/01/27 02:05:17;;;;;;;;;;;;;;;17.71;60.23;101699.66;4968996;28;1574;-61
2022/01/27 02:07:54;;;;;;;;;;;;;;;17.72;60.48;101695.16;4967608;28;1341;-61
2022/01/27 02:10:34;;;;;;;;;;;;;;;17.71;60.46;101702.31;4971316;28;1579;-61
2022/01/27 02:18:30;;;;;;;;;;;;;;;17.70;60.16;101696.09;4964264;28;1716;-60
2022/01/27 02:20:58;;;;;;;;;;;;;;;17.71;60.34;101699.66;4962416;28;1577;-61
2022/01/27 02:23:24;;;;;;;;;;;;;;;17.68;60.40;101699.84;4966285;28;1373;-61
2022/01/27 02:25:51;;;;;;;;;;;;;;;17.69;60.30;101693.53;4969503;28;1341;-61
2022/01/27 02:28:18;;;;;;;;;;;;;;;17.71;60.13;101694.28;4967340;28;995;-61
2022/01/27 02:30:46;;;;;;;;;;;;;;;17.70;60.04;101697.91;4972298;28;1767;-61
2022/01/27 02:33:12;;;;;;;;;;;;;;;17.73;59.96;101703.06;4970075;28;1778;-61
2022/01/27 02:35:39;;;;;;;;;;;;;;;17.73;60.12;101703.06;4968723;28;1647;-60
2022/01/27 02:38:07;;;;;;;;;;;;;;;17.74;59.90;101707.44;4966719;28;1650;-61
2022/01/27 02:40:35;;;;;;;;;;;;;;;17.69;59.96;101709.59;4971919;28;1402;-61
2022/01/27 02:43:03;;;;;;;;;;;;;;;17.72;59.86;101752.16;4967388;28;2035;-61
2022/01/27 02:45:33;;;;;;;;;;;;;;;17.66;59.98;101696.41;4965164;28;1042;-61
2022/01/27 02:48:00;;;;;;;;;;;;;;;17.74;59.78;101707.44;4959781;28;1732;-61
2022/01/27 02:50:26;;;;;;;;;;;;;;;17.74;59.51;101709.28;4968351;28;1389;-61
2022/01/27 02:52:53;;;;;;;;;;;;;;;17.72;59.68;101701.34;4964293;28;1513;-61
2022/01/27 02:55:21;;;;;;;;;;;;;;;17.70;59.57;101697.91;4970780;28;1483;-61
2022/01/27 02:57:47;;;;;;;;;;;;;;;17.69;59.86;101704.25;4965868;28;1365;-60
2022/01/27 03:00:14;;;;;;;;;;;;;;;17.67;59.63;101709.69;4966348;28;1548;-61
2022/01/27 03:02:41;;;;;;;;;;;;;;;17.59;59.88;101719.19;4968162;28;1985;-61
2022/01/27 03:05:08;;;;;;;;;;;;;;;17.52;60.22;101704.50;4967538;28;1573;-61
2022/01/27 03:07:34;;;;;;;;;;;;;;;17.49;59.90;101717.13;4965667;28;1436;-61
2022/01/27 03:10:01;;;;;;;;;;;;;;;17.45;59.98;101718.31;4969019;28;1328;-61
2022/01/27 03:12:30;;;;;;;;;;;;;;;17.54;59.83;101711.47;4960404;28;1720;-61
2022/01/27 03:14:58;;;;;;;;;;;;;;;17.52;59.36;101716.06;4969314;28;1585;-61
2022/01/27 03:17:24;;;;;;;;;;;;;;;17.54;59.64;101718.63;4964972;28;1341;-61
2022/01/27 03:19:51;;;;;;;;;;;;;;;17.52;59.66;101715.22;4968139;28;1082;-61
2022/01/27 03:22:18;;;;;;;;;;;;;;;17.48;59.91;101720.75;4971172;28;1902;-61
2022/01/27 03:24:44;;;;;;;;;;;;;;;17.41;59.62;101721.28;4966361;28;1708;-60
2022/01/27 03:27:17;;;;;;;;;;;;;;;17.41;59.80;101724.81;4972768;28;1621;-60
2022/01/27 03:29:45;;;;;;;;;;;;;;;17.41;59.84;101730.16;4967840;28;1763;-61
2022/01/27 03:32:12;;;;;;;;;;;;;;;17.39;59.66;101720.50;4977012;28;1616;-61
2022/01/27 03:34:38;;;;;;;;;;;;;;;17.39;59.87;101717.81;4969574;28;1569;-61
2022/01/27 03:37:05;;;;;;;;;;;;;;;17.37;59.99;101723.31;4977813;28;1345;-59
2022/01/27 03:39:32;;;;;;;;;;;;;;;17.37;59.44;101727.78;4970556;28;1775;-61
2022/01/27 03:42:00;;;;;;;;;;;;;;;17.37;59.75;101725.09;4964586;28;1907;-60
2022/01/27 03:44:28;;;;;;;;;;;;;;;17.34;59.56;101719.97;4972703;28;1656;-61
2022/01/27 03:46:56;;;;;;;;;;;;;;;17.37;59.49;101723.31;4960325;28;1573;-60
2022/01/27 03:49:23;;;;;;;;;;;;;;;17.42;59.24;101726.50;4972922;28;1527;-61
2022/01/27 03:51:50;;;;;;;;;;;;;;;17.46;58.76;101720.00;4971542;28;1715;-61
2022/01/27 03:54:17;;;;;;;;;;;;;;;17.49;58.98;101738.53;4972694;28;1727;-60
2022/01/27 03:56:44;;;;;;;;;;;;;;;17.48;58.89;101725.25;4967933;28;1723;-61
2022/01/27 03:59:10;;;;;;;;;;;;;;;17.55;58.62;101728.38;4967638;28;1548;-61
2022/01/27 04:01:38;;;;;;;;;;;;;;;17.47;58.90;101731.56;4974552;28;1906;-61
2022/01/27 04:04:06;;;;;;;;;;;;;;;17.47;58.73;101723.56;4966065;28;1578;-61
2022/01/27 04:06:35;;;;;;;;;;;;;;;17.42;59.06;101707.78;4969497;28;1440;-61
2022/01/27 04:09:02;;;;;;;;;;;;;;;17.42;58.97;101731.84;4968580;28;1383;-61
2022/01/27 04:11:28;;;;;;;;;;;;;;;17.35;58.89;101732.34;4968463;28;1428;-61
2022/01/27 04:13:55;;;;;;;;;;;;;;;17.39;58.88;101732.06;4968271;28;1380;-61
2022/01/27 04:16:21;;;;;;;;;;;;;;;17.38;58.95;101727.66;4972944;28;1606;-61
2022/01/27 04:18:48;;;;;;;;;;;;;;;17.37;58.85;101722.41;4967741;28;1535;-61
2022/01/27 04:21:16;;;;;;;;;;;;;;;17.43;59.17;101722.88;4974478;28;1561;-60
2022/01/27 04:23:43;;;;;;;;;;;;;;;17.60;58.05;101726.25;4967598;28;2044;-60
2022/01/27 04:26:12;;;;;;;;;;;;;;;17.78;58.08;101722.31;4967700;28;1565;-60
2022/01/27 04:28:40;;;;;;;;;;;;;;;17.96;57.69;101714.88;4971518;28;1602;-61
2022/01/27 04:31:09;;;;;;;;;;;;;;;18.12;57.67;101732.56;4966846;28;968;-60
2022/01/27 04:33:37;;;;;;;;;;;;;;;18.25;57.30;101734.28;4966259;28;1791;-60
2022/01/27 04:36:09;;;;;;;;;;;;;;;18.34;56.70;101723.91;4970077;28;1581;-60
2022/01/27 04:38:43;;;;;;;;;;;;;;;18.36;56.90;101714.78;4963824;28;1588;-60
2022/01/27 04:41:15;;;;;;;;;;;;;;;18.40;56.25;101720.78;4966539;28;1584;-60
2022/01/27 04:43:49;;;;;;;;;;;;;;;18.40;56.26;101718.09;4966633;28;1971;-60
2022/01/27 04:46:25;;;;;;;;;;;;;;;18.34;56.43;101700.66;4964012;28;1064;-61
2022/01/27 04:48:54;;;;;;;;;;;;;;;18.31;56.48;101713.44;4967856;28;1740;-61
2022/01/27 04:51:23;;;;;;;;;;;;;;;18.26;56.44;101716.41;4966492;28;1334;-60
2022/01/27 04:53:56;;;;;;;;;;;;;;;18.21;56.75;101719.41;4969157;28;1535;-61
2022/01/27 04:56:24;;;;;;;;;;;;;;;18.18;56.70;101724.97;4966787;28;1620;-61
2022/01/27 04:58:54;;;;;;;;;;;;;;;18.08;56.66;101729.25;4967381;28;1581;-61
2022/01/27 05:01:28;;;;;;;;;;;;;;;18.03;57.11;101726.06;4963180;28;1392;-60
2022/01/27 05:03:59;;;;;;;;;;;;;;;18.01;56.99;101736.84;4963760;28;1914;-61
2022/01/27 05:06:26;;;;;;;;;;;;;;;18.01;55.60;101727.97;4960831;28;1508;-61
2022/01/27 05:08:54;;;;;;;;;;;;;;;17.94;56.37;101745.41;4966834;28;1376;-61
2022/01/27 05:11:26;;;;;;;;;;;;;;;17.88;56.09;101739.50;4967502;28;1584;-61
2022/01/27 05:13:56;;;;;;;;;;;;;;;17.83;55.79;101741.66;4968436;28;1596;-61
2022/01/27 05:16:22;;;;;;;;;;;;;;;17.77;55.78;101743.84;4970353;28;1072;-61
2022/01/27 05:18:49;;;;;;;;;;;;;;;17.71;56.13;101745.13;4970157;28;1358;-61
2022/01/27 05:21:15;;;;;;;;;;;;;;;17.69;56.33;101737.19;4970620;28;1567;-61
2022/01/27 05:23:42;;;;;;;;;;;;;;;17.65;56.13;101740.19;4966583;28;1975;-61
2022/01/27 05:26:10;;;;;;;;;;;;;;;17.63;56.34;101739.44;4967297;28;1624;-61
2022/01/27 05:28:36;;;;;;;;;;;;;;;17.63;56.22;101747.47;4972038;28;1587;-61
2022/01/27 05:31:05;;;;;;;;;;;;;;;17.56;56.11;101755.00;4972277;28;1718;-61
2022/01/27 05:33:31;;;;;;;;;;;;;;;17.54;56.28;101778.31;4965864;28;1731;-61
2022/01/27 05:35:58;;;;;;;;;;;;;;;17.56;56.32;101775.56;4969320;28;1570;-61
2022/01/27 05:38:24;;;;;;;;;;;;;;;17.56;56.54;101781.75;4966337;28;1750;-61
2022/01/27 05:40:51;;;;;;;;;;;;;;;17.53;56.75;101784.66;4966822;28;1644;-61
2022/01/27 05:43:18;;;;;;;;;;;;;;;17.49;56.95;101800.03;4968194;28;1906;-61
2022/01/27 05:45:45;;;;;;;;;;;;;;;17.48;57.00;101792.94;4965670;28;1033;-61
2022/01/27 05:48:12;;;;;;;;;;;;;;;17.61;56.93;101786.81;4968430;28;1507;-60
2022/01/27 05:50:39;;;;;;;;;;;;;;;17.64;56.85;101767.88;4969990;28;1515;-60
2022/01/27 05:53:05;;;;;;;;;;;;;;;17.68;56.74;101772.06;4966887;28;1644;-61
2022/01/27 05:55:32;;;;;;;;;;;;;;;17.65;56.91;101765.09;4968236;28;1497;-61
2022/01/27 05:57:58;;;;;;;;;;;;;;;17.60;57.27;101758.34;4965168;28;1591;-61
2022/01/27 06:00:27;;;;;;;;;;;;;;;17.65;56.97;101761.59;4969442;28;1218;-61
2022/01/27 06:02:54;;;;;;;;;;;;;;;17.66;57.00;101782.84;4962245;28;1903;-61
2022/01/27 06:05:21;;;;;;;;;;;;;;;17.64;56.96;101781.25;4971421;28;1639;-61
2022/01/27 06:07:47;;;;;;;;;;;;;;;17.58;57.13;101760.25;4965112;28;1577;-61
2022/01/27 06:10:14;;;;;;;;;;;;;;;17.55;57.28;101785.41;4966859;28;1608;-61
2022/01/27 06:12:53;;;;;;;;;;;;;;;17.57;57.15;101774.63;4966937;28;1569;-61
2022/01/27 06:15:20;;;;;;;;;;;;;;;17.52;57.08;101774.91;4956783;29;1119;-61
2022/01/27 06:17:48;;;;;;;;;;;;;;;17.47;57.38;101783.22;4961267;28;1507;-60
2022/01/27 06:20:15;;;;;;;;;;;;;;;17.42;57.34;101779.13;4967271;28;1624;-61
2022/01/27 06:22:42;;;;;;;;;;;;;;;17.51;57.15;101778.53;4970138;28;1973;-61
2022/01/27 06:25:09;;;;;;;;;;;;;;;17.61;56.63;101784.16;4966764;28;1167;-61
2022/01/27 06:27:35;;;;;;;;;;;;;;;18.11;55.74;101782.59;4968677;28;1971;-61
2022/01/27 06:30:04;;;;;;;;;;;;;;;18.61;55.38;101782.72;4969338;28;1727;-60
2022/01/27 06:32:31;;;;;;;;;;;;;;;18.96;53.95;101774.00;4973300;28;1569;-60
2022/01/27 06:34:59;;;;;;;;;;;;;;;18.99;56.54;101774.63;4967056;28;1625;-60
2022/01/27 06:37:26;;;;;;;;;;;;;;;18.99;59.13;101784.50;4973025;28;1463;-61
2022/01/27 06:39:53;;;;;;;;;;;;;;;18.99;59.54;101785.38;4971569;28;1511;-61
2022/01/27 06:42:20;;;;;;;;;;;;;;;19.07;58.43;101774.09;4968910;28;1903;-58
2022/01/27 06:44:46;;;;;;;;;;;;;;;18.99;57.12;101769.28;4968854;28;1743;-66
2022/01/27 06:47:13;;;;;;;;;;;;;;;19.08;58.85;101765.94;4959461;28;1365;-61
2022/01/27 06:49:40;;;;;;;;;;;;;;;19.21;59.69;101775.75;4969591;28;1440;-63
2022/01/27 06:52:08;;;;;;;;;;;;;;;19.12;59.68;101773.75;4969180;28;971;-62
2022/01/27 06:54:34;;;;;;;;;;;;;;;19.16;60.01;101773.44;4976019;28;1731;-56
2022/01/27 06:57:02;;;;;;;;;;;;;;;19.39;59.05;101761.00;4974847;28;1471;-65
2022/01/27 06:59:28;;;;;;;;;;;;;;;19.19;59.60;101759.78;4970523;28;1710;-61
2022/01/27 07:01:55;;;;;;;;;;;;;;;19.27;58.83;101751.19;4976687;28;1471;-62
2022/01/27 07:04:22;;;;;;;;;;;;;;;19.23;60.17;101752.38;4975961;28;1969;-61
2022/01/27 07:06:51;;;;;;;;;;;;;;;19.29;57.96;101746.56;4971771;28;1410;-67
2022/01/27 07:09:19;;;;;;;;;;;;;;;19.35;58.21;101758.66;4974659;28;1794;-69
2022/01/27 07:11:46;;;;;;;;;;;;;;;19.36;58.88;101755.88;4964429;28;1716;-62
2022/01/27 07:14:13;;;;;;;;;;;;;;;19.28;57.92;101774.34;4965108;28;1448;-65
2022/01/27 07:16:42;;;;;;;;;;;;;;;19.31;59.08;101771.44;4975828;28;1033;-63
2022/01/27 07:19:09;;;;;;;;;;;;;;;19.31;58.11;101774.13;4971516;28;1743;-62
2022/01/27 07:21:35;;;;;;;;;;;;;;;19.05;57.51;101763.47;4969522;28;1523;-66
2022/01/27 07:24:02;;;;;;;;;;;;;;;18.85;57.78;101764.06;4967811;28;1911;-66
2022/01/27 07:26:30;;;;;;;;;;;;;;;18.76;58.92;101768.25;4976210;28;1436;-63
2022/01/27 07:28:57;;;;;;;;;;;;;;;18.69;59.00;101757.09;4967029;28;1504;-61
2022/01/27 07:31:24;;;;;;;;;;;;;;;18.68;58.99;101758.06;4979309;28;1519;-68
2022/01/27 07:33:52;;;;;;;;;;;;;;;18.62;59.15;101761.19;4968943;28;1547;-61
2022/01/27 07:36:19;;;;;;;;;;;;;;;18.52;59.36;101760.09;4976774;28;1387;-67
2022/01/27 07:38:46;;;;;;;;;;;;;;;18.46;58.77;101765.88;4972080;28;1377;-67
2022/01/27 07:41:14;;;;;;;;;;;;;;;18.39;58.79;101764.63;4977459;28;1471;-61
2022/01/27 07:43:42;;;;;;;;;;;;;;;18.38;58.99;101762.88;4973998;28;1910;-62
2022/01/27 07:46:11;;;;;;;;;;;;;;;18.36;59.13;101768.34;4971124;28;1404;-62
2022/01/27 07:48:37;;;;;;;;;;;;;;;18.33;58.49;101770.41;4972794;28;1563;-63
2022/01/27 07:51:06;;;;;;;;;;;;;;;18.31;58.69;101777.69;4965088;28;1648;-66
2022/01/27 07:53:33;;;;;;;;;;;;;;;18.34;58.47;101772.94;4973480;28;1353;-65
2022/01/27 07:56:02;;;;;;;;;;;;;;;18.27;58.96;101777.88;4972195;28;1515;-64
2022/01/27 07:58:28;;;;;;;;;;;;;;;18.22;58.75;101772.00;4969652;28;1529;-66
2022/01/27 08:00:56;;;;;;;;;;;;;;;18.35;58.58;101769.31;4975890;28;1365;-62
2022/01/27 08:03:23;;;;;;;;;;;;;;;18.26;59.37;101764.59;4976565;28;1891;-64
2022/01/27 08:05:49;;;;;;;;;;;;;;;18.23;59.99;101776.38;4971741;28;1416;-59
2022/01/27 08:08:16;;;;;;;;;;;;;;;18.15;59.11;101776.06;4969122;28;1418;-65
2022/01/27 08:10:44;;;;;;;;;;;;;;;18.15;59.51;101773.38;4974287;28;1509;-58
2022/01/27 08:13:11;;;;;;;;;;;;;;;18.12;60.49;101778.94;4968418;28;1397;-57
2022/01/27 08:15:38;;;;;;;;;;;;;;;18.08;59.96;101777.44;4969388;28;1340;-61
2022/01/27 08:18:06;;;;;;;;;;;;;;;18.05;59.99;101772.31;4974747;28;1531;-57
2022/01/27 08:20:33;;;;;;;;;;;;;;;18.05;59.73;101793.72;4968065;28;1446;-61
2022/01/27 08:23:00;;;;;;;;;;;;;;;18.03;59.89;101801.00;4973671;28;1914;-62
2022/01/27 08:25:26;;;;;;;;;;;;;;;18.03;60.25;101801.00;4968481;28;1393;-61
2022/01/27 08:27:55;;;;;;;;;;;;;;;18.11;60.07;101800.47;4975232;28;1374;-65
2022/01/27 08:30:26;;;;;;;;;;;;;;;18.01;59.45;101800.25;4968100;28;1345;-67
2022/01/27 08:32:58;;;;;;;;;;;;;;;18.18;59.22;101804.44;4974550;28;1463;-61
2022/01/27 08:35:26;;;;;;;;;;;;;;;18.34;58.56;101806.91;4967422;28;1568;-60
2022/01/27 08:37:53;;;;;;;;;;;;;;;18.50;58.26;101810.22;4965741;28;1478;-54
2022/01/27 08:40:20;;;;;;;;;;;;;;;18.54;58.74;101811.72;4973002;28;1351;-59
2022/01/27 08:42:46;;;;;;;;;;;;;;;18.73;57.93;101810.47;4971063;28;1477;-60
2022/01/27 08:45:14;;;;;;;;;;;;;;;18.87;58.30;101805.84;4974866;28;1974;-61
2022/01/27 08:47:40;;;;;;;;;;;;;;;18.88;58.51;101812.09;4973323;28;1523;-57
2022/01/27 08:50:09;;;;;;;;;;;;;;;18.96;57.87;101815.09;4968997;28;1562;-63
2022/01/27 08:52:37;;;;;;;;;;;;;;;19.20;56.69;101830.34;4972495;28;1368;-61
2022/01/27 08:55:04;;;;;;;;;;;;;;;19.18;58.80;101829.59;4976795;28;1281;-64
2022/01/27 08:57:31;;;;;;;;;;;;;;;19.12;58.81;101820.19;4970605;28;1330;-65
2022/01/27 08:59:58;;;;;;;;;;;;;;;19.31;59.86;101817.03;4965815;28;1768;-63
2022/01/27 09:02:24;;;;;;;;;;;;;;;19.17;59.99;101814.50;4974507;28;1515;-60
2022/01/27 09:04:52;;;;;;;;;;;;;;;19.08;60.39;101821.41;4958213;28;1982;-57
2022/01/27 09:07:18;;;;;;;;;;;;;;;19.24;59.39;101822.00;4967767;28;1013;-58
2022/01/27 09:09:46;;;;;;;;;;;;;;;19.35;60.20;101804.25;4963391;28;1543;-57
2022/01/27 09:12:14;;;;;;;;;;;;;;;19.54;60.45;101803.78;4968797;28;1648;-63
2022/01/27 09:14:42;;;;;;;;;;;;;;;19.38;59.62;101812.94;4970631;28;1627;-60
2022/01/27 09:17:09;;;;;;;;;;;;;;;19.23;60.51;101797.97;4976126;28;1623;-58
2022/01/27 09:19:38;;;;;;;;;;;;;;;19.20;60.77;101803.53;4963090;28;1421;-58
2022/01/27 09:22:11;;;;;;;;;;;;;;;19.20;61.08;101809.78;4970044;28;1798;-55
2022/01/27 09:24:40;;;;;;;;;;;;;;;19.00;59.78;101797.81;4970256;28;1903;-60
2022/01/27 09:27:08;;;;;;;;;;;;;;;18.96;59.54;101809.72;4970317;28;1746;-60
2022/01/27 09:29:35;;;;;;;;;;;;;;;18.80;61.58;101804.59;4969590;28;1540;-59
2022/01/27 09:32:02;;;;;;;;;;;;;;;18.61;60.25;101794.28;4975562;28;1558;-58
2022/01/27 09:34:29;;;;;;;;;;;;;;;18.27;57.23;101796.63;4965370;28;1373;-59
2022/01/27 09:36:57;;;;;;;;;;;;;;;18.24;58.15;101799.53;4968648;28;1766;-60
2022/01/27 09:39:24;;;;;;;;;;;;;;;18.26;58.28;101792.25;4972962;28;1656;-59
2022/01/27 09:41:54;;;;;;;;;;;;;;;18.24;59.05;101787.94;4969942;28;1691;-59
2022/01/27 09:44:24;;;;;;;;;;;;;;;18.24;58.29;101782.59;4965333;28;1907;-59
2022/01/27 09:46:52;;;;;;;;;;;;;;;18.22;59.17;101790.75;4959175;28;1076;-60
2022/01/27 09:49:29;;;;;;;;;;;;;;;18.25;58.52;101777.13;4964325;28;1036;-58
2022/01/27 09:51:56;;;;;;;;;;;;;;;18.25;58.45;101776.28;4964260;28;1555;-58
2022/01/27 09:54:22;;;;;;;;;;;;;;;18.26;58.43;101760.13;4969828;28;1767;-59
2022/01/27 09:56:49;;;;;;;;;;;;;;;18.30;59.22;101760.75;4966262;28;1747;-59
2022/01/27 09:59:16;;;;;;;;;;;;;;;18.33;59.03;101751.66;4966238;28;1513;-58
2022/01/27 10:01:54;;;;;;;;;;;;;;;18.34;58.87;101750.69;4959920;28;1310;-60
2022/01/27 10:04:20;;;;;;;;;;;;;;;18.36;58.96;101748.75;4965411;28;1984;-59
2022/01/27 10:06:48;;;;;;;;;;;;;;;18.41;58.90;101750.16;4967864;28;1661;-59
2022/01/27 10:09:17;;;;;;;;;;;;;;;18.42;58.90;101737.59;4966924;28;1535;-60
2022/01/27 10:11:44;;;;;;;;;;;;;;;18.43;58.92;101734.81;4962642;28;1196;-59
2022/01/27 10:14:17;;;;;;;;;;;;;;;18.56;58.43;101747.34;4969687;28;1443;-59
2022/01/27 10:16:44;;;;;;;;;;;;;;;18.53;58.03;101744.91;4959612;28;1586;-59
2022/01/27 10:19:13;;;;;;;;;;;;;;;18.50;58.66;101732.56;4966171;28;1594;-59
2022/01/27 10:21:40;;;;;;;;;;;;;;;18.53;58.40;101734.19;4963280;28;1775;-58
2022/01/27 10:24:18;;;;;;;;;;;;;;;18.54;58.28;101736.72;4966945;28;1910;-59
2022/01/27 10:26:52;;;;;;;;;;;;;;;18.40;57.12;101726.16;4974016;28;1572;-58
2022/01/27 10:29:30;;;;;;;;;;;;;;;18.30;56.49;101728.59;4972610;28;1877;-58
2022/01/27 10:32:01;;;;;;;;;;;;;;;18.47;56.43;101740.81;4977209;28;1575;-58
2022/01/27 10:34:29;;;;;;;;;;;;;;;18.63;56.08;101724.53;4969072;28;1024;-58
2022/01/27 10:36:56;;;;;;;;;;;;;;;18.62;57.41;101710.28;4967628;28;1536;-57
2022/01/27 10:39:22;;;;;;;;;;;;;;;18.76;58.06;101724.47;4968018;28;1598;-60
2022/01/27 10:41:55;;;;;;;;;;;;;;;18.80;57.00;101709.94;4973987;28;1563;-56
2022/01/27 10:44:23;;;;;;;;;;;;;;;18.87;57.47;101711.22;4969319;28;1906;-57
2022/01/27 10:47:01;;;;;;;;;;;;;;;18.92;57.48;101695.66;4962453;28;981;-57
2022/01/27 10:49:31;;;;;;;;;;;;;;;19.05;56.40;101696.44;4964018;28;1031;-57
2022/01/27 10:51:57;;;;;;;;;;;;;;;18.94;57.24;101712.50;4968018;28;1559;-58
2022/01/27 10:54:37;;;;;;;;;;;;;;;19.08;56.67;101690.03;4967505;28;1782;-70
2022/01/27 10:57:04;;;;;;;;;;;;;;;19.35;56.18;101691.59;4967952;28;1594;-64
2022/01/27 10:59:32;;;;;;;;;;;;;;;19.20;55.91;101681.06;4973607;28;1621;-64
2022/01/27 11:01:59;;;;;;;;;;;;;;;19.35;56.18;101683.56;4978769;28;1711;-57
2022/01/27 11:04:34;;;;;;;;;;;;;;;19.19;57.38;101691.91;4970715;28;1906;-58
2022/01/27 11:07:03;;;;;;;;;;;;;;;19.23;56.76;101680.81;4966919;28;972;-56
2022/01/27 11:09:33;;;;;;;;;;;;;;;18.97;57.85;101680.06;4975748;28;1755;-58
2022/01/27 11:12:05;;;;;;;;;;;;;;;19.06;57.67;101668.69;4966127;28;1763;-62
2022/01/27 11:14:32;;;;;;;;;;;;;;;19.12;57.33;101658.47;4968402;28;1585;-58
2022/01/27 11:17:01;;;;;;;;;;;;;;;19.40;56.55;101654.59;4977831;28;1543;-57
2022/01/27 11:19:58;;;;;;;;;;;;;;;19.32;57.35;101676.59;4969600;28;1042;-59
2022/01/27 11:22:46;;;;;;;;;;;;;;;19.46;57.18;101654.97;4970962;28;1027;-58
2022/01/27 11:27:55;;;;;;;;;;;;;;;19.45;56.87;101642.50;4967595;28;1515;-56
2022/01/27 11:30:28;;;;;;;;;;;;;;;19.17;57.86;101635.69;4975061;28;1346;-67
2022/01/27 11:33:00;;;;;;;;;;;;;;;19.08;58.04;101637.25;4973213;28;1751;-62
2022/01/27 11:35:27;;;;;;;;;;;;;;;18.92;59.19;101634.03;4962037;28;1693;-62
2022/01/27 11:37:56;;;;;;;;;;;;;;;18.87;59.90;101639.69;4970400;28;1466;-60
2022/01/27 11:40:24;;;;;;;;;;;;;;;18.88;59.16;101649.47;4970415;28;1361;-60
2022/01/27 11:43:11;;;;;;;;;;;;;;;18.86;58.73;101629.97;4960296;28;1228;-60
2022/01/27 11:45:39;;;;;;;;;;;;;;;18.89;57.93;101623.50;4967717;28;1993;-62
2022/01/27 11:48:08;;;;;;;;;;;;;;;18.92;58.70;101628.66;4974283;28;1558;-62
2022/01/27 11:50:38;;;;;;;;;;;;;;;18.89;57.61;101610.09;4972545;28;1474;-62
2022/01/27 11:53:06;;;;;;;;;;;;;;;19.02;58.24;101607.34;4962790;28;1444;-59
2022/01/27 11:55:46;;;;;;;;;;;;;;;19.00;57.71;101615.53;4967069;28;1395;-63
2022/01/27 11:58:13;;;;;;;;;;;;;;;18.98;57.63;101613.91;4964698;28;1348;-63
2022/01/27 12:00:40;;;;;;;;;;;;;;;19.07;57.75;101606.03;4973485;28;1368;-63
2022/01/27 12:03:15;;;;;;;;;;;;;;;19.08;56.35;101597.03;4970506;28;1628;-63
2022/01/27 12:05:45;;;;;;;;;;;;;;;19.20;57.24;101599.75;4965205;28;1990;-63
2022/01/27 12:08:25;;;;;;;;;;;;;;;19.26;56.99;101600.16;4971698;28;1516;-63
2022/01/27 12:10:54;;;;;;;;;;;;;;;19.30;56.90;101597.22;4965224;28;1636;-59
2022/01/27 12:13:39;;;;;;;;;;;;;;;19.30;55.83;101589.19;4966122;28;1589;-59
2022/01/27 12:16:22;;;;;;;;;;;;;;;19.31;56.19;101585.53;4954820;29;1193;-59
2022/01/27 12:18:58;;;;;;;;;;;;;;;19.33;55.43;101589.81;4964441;28;1385;-60
2022/01/27 12:21:31;;;;;;;;;;;;;;;19.41;55.76;101584.69;4968670;28;1358;-60
2022/01/27 12:24:18;;;;;;;;;;;;;;;19.35;55.42;101601.25;4965282;28;1450;-60
2022/01/27 12:26:47;;;;;;;;;;;;;;;19.36;55.70;101584.22;4964956;28;1608;-63
2022/01/27 12:29:21;;;;;;;;;;;;;;;19.41;56.58;101586.53;4965239;28;1448;-63
2022/01/27 12:31:47;;;;;;;;;;;;;;;19.45;55.67;101583.50;4960909;28;1053;-63
2022/01/27 12:34:14;;;;;;;;;;;;;;;19.39;55.17;101605.41;4967167;28;1575;-60
2022/01/27 12:36:40;;;;;;;;;;;;;;;19.36;55.45;101594.94;4968804;28;1716;-63
2022/01/27 12:39:09;;;;;;;;;;;;;;;19.40;55.00;101584.84;4962991;28;1353;-60
2022/01/27 12:41:36;;;;;;;;;;;;;;;19.27;56.96;101591.13;4967304;28;1481;-58
2022/01/27 12:44:11;;;;;;;;;;;;;;;19.15;58.10;101586.69;4964381;28;1612;-62
2022/01/27 12:46:37;;;;;;;;;;;;;;;19.03;57.34;101569.72;4958362;28;1938;-58
2022/01/27 12:49:04;;;;;;;;;;;;;;;18.99;57.11;101578.97;4960518;28;1342;-62
2022/01/27 12:51:45;;;;;;;;;;;;;;;18.92;57.28;101567.00;4968224;28;1755;-58
2022/01/27 12:54:14;;;;;;;;;;;;;;;18.92;58.07;101561.66;4967213;28;1877;-63
2022/01/27 12:56:40;;;;;;;;;;;;;;;19.00;57.07;101556.56;4969963;28;1424;-63
2022/01/27 12:59:14;;;;;;;;;;;;;;;19.03;57.97;101559.00;4963767;28;1632;-63
2022/01/27 13:01:41;;;;;;;;;;;;;;;19.20;57.21;101556.84;4969006;28;1344;-59
2022/01/27 13:04:07;;;;;;;;;;;;;;;19.17;56.10;101549.06;4968634;28;1699;-63
2022/01/27 13:06:34;;;;;;;;;;;;;;;19.12;56.99;101546.72;4966256;28;1910;-63
2022/01/27 13:09:13;;;;;;;;;;;;;;;19.05;56.63;101554.38;4966966;28;1266;-60
2022/01/27 13:11:41;;;;;;;;;;;;;;;19.14;56.90;101546.59;4966243;28;1490;-62
2022/01/27 13:14:07;;;;;;;;;;;;;;;19.24;56.53;101544.94;4965558;28;1302;-64